createdAt,value
2024-02-14T00:00:16.092Z,0.20
2024-02-14T00:02:45.520Z,0.03
2024-02-14T00:05:13.098Z,0.20
2024-02-14T00:10:08.258Z,0.20
2024-02-14T00:12:36.690Z,0.00
2024-02-14T00:15:04.870Z,0.00
2024-02-14T00:17:31.807Z,0.20
2024-02-14T00:19:58.665Z,0.10
2024-02-14T00:22:25.842Z,0.10
2024-02-14T00:24:52.706Z,0.20
2024-02-14T00:27:19.465Z,0.65
2024-02-14T00:29:48.010Z,0.00
2024-02-14T00:32:15.032Z,0.00
2024-02-14T00:34:42.158Z,0.28
2024-02-14T00:37:09.479Z,0.20
2024-02-14T00:39:36.224Z,0.70
2024-02-14T00:42:03.206Z,0.20
2024-02-14T00:44:30.019Z,0.00
2024-02-14T00:47:03.722Z,0.20
2024-02-14T00:49:30.760Z,0.00
2024-02-14T00:51:57.598Z,0.52
2024-02-14T00:54:24.275Z,0.20
2024-02-14T00:56:51.044Z,0.05
2024-02-14T00:59:18.062Z,1.45
2024-02-14T01:01:45.927Z,0.20
2024-02-14T01:04:12.942Z,0.15
2024-02-14T01:06:39.904Z,0.08
2024-02-14T01:09:06.723Z,0.00
2024-02-14T01:11:33.559Z,0.55
2024-02-14T01:14:00.332Z,0.30
2024-02-14T01:16:27.496Z,0.10
2024-02-14T01:18:54.602Z,0.10
2024-02-14T01:21:21.381Z,0.40
2024-02-14T01:23:48.177Z,0.10
2024-02-14T01:26:15.681Z,0.10
2024-02-14T01:28:44.857Z,0.00
2024-02-14T01:31:13.149Z,0.08
2024-02-14T01:33:41.519Z,0.10
2024-02-14T01:36:08.500Z,0.32
2024-02-14T01:38:36.924Z,0.10
2024-02-14T01:41:05.099Z,0.20
2024-02-14T01:43:32.329Z,0.25
2024-02-14T01:46:08.997Z,0.10
2024-02-14T01:48:36.558Z,0.17
2024-02-14T01:51:04.816Z,0.20
2024-02-14T01:53:33.164Z,0.00
2024-02-14T01:56:01.239Z,0.00
2024-02-14T01:58:29.915Z,0.25
2024-02-14T02:00:58.114Z,0.10
2024-02-14T02:03:25.933Z,0.20
2024-02-14T02:05:56.642Z,0.10
2024-02-14T02:08:23.671Z,0.00
2024-02-14T02:10:50.714Z,0.10
2024-02-14T02:13:17.785Z,0.10
2024-02-14T02:15:46.082Z,0.10
2024-02-14T02:18:13.024Z,0.32
2024-02-14T02:20:40.225Z,0.00
2024-02-14T02:23:07.115Z,0.52
2024-02-14T02:25:33.876Z,0.00
2024-02-14T02:28:00.971Z,0.20
2024-02-14T02:30:28.616Z,0.03
2024-02-14T02:37:51.828Z,0.00
2024-02-14T02:40:18.900Z,0.20
2024-02-14T02:42:48.636Z,0.20
2024-02-14T02:45:15.408Z,0.30
2024-02-14T02:47:42.166Z,0.28
2024-02-14T02:50:09.273Z,0.17
2024-02-14T02:52:36.192Z,0.05
2024-02-14T02:55:03.205Z,0.00
2024-02-14T02:57:30.715Z,0.15
2024-02-14T02:59:59.074Z,0.00
2024-02-14T03:02:26.939Z,0.25
2024-02-14T03:04:54.314Z,0.03
2024-02-14T03:07:22.033Z,0.00
2024-02-14T03:09:48.876Z,0.10
2024-02-14T03:12:17.675Z,0.15
2024-02-14T03:14:45.482Z,0.00
2024-02-14T03:17:12.547Z,0.10
2024-02-14T03:19:40.417Z,0.03
2024-02-14T03:22:10.415Z,0.00
2024-02-14T03:24:38.457Z,0.05
2024-02-14T03:27:06.534Z,0.00
2024-02-14T03:29:33.656Z,0.10
2024-02-14T03:32:05.301Z,0.10
2024-02-14T03:34:35.054Z,0.00
2024-02-14T03:37:03.396Z,0.05
2024-02-14T03:39:30.843Z,0.30
2024-02-14T03:41:57.940Z,0.10
2024-02-14T03:44:24.597Z,0.00
2024-02-14T03:46:51.330Z,0.20
2024-02-14T03:49:18.353Z,0.13
2024-02-14T03:51:45.194Z,0.20
2024-02-14T03:54:13.224Z,0.10
2024-02-14T03:56:40.128Z,0.10
2024-02-14T03:59:07.251Z,0.03
2024-02-14T04:01:34.329Z,0.30
2024-02-14T04:04:01.390Z,0.10
2024-02-14T04:06:28.873Z,0.00
2024-02-14T04:08:55.719Z,0.30
2024-02-14T04:11:22.460Z,0.10
2024-02-14T04:13:49.139Z,0.17
2024-02-14T04:16:15.797Z,0.17
2024-02-14T04:18:44.001Z,0.28
2024-02-14T04:21:11.171Z,0.32
2024-02-14T04:23:37.989Z,0.00
2024-02-14T04:26:04.928Z,0.00
2024-02-14T04:28:31.618Z,0.10
2024-02-14T04:30:58.966Z,0.00
2024-02-14T04:33:26.833Z,0.10
2024-02-14T04:35:53.654Z,0.00
2024-02-14T04:38:21.011Z,0.10
2024-02-14T04:40:47.709Z,0.20
2024-02-14T04:43:14.557Z,0.28
2024-02-14T04:45:41.312Z,0.00
2024-02-14T04:48:09.289Z,0.10
2024-02-14T04:50:36.256Z,0.10
2024-02-14T04:53:02.975Z,0.20
2024-02-14T04:55:30.418Z,0.25
2024-02-14T05:00:23.969Z,0.03
2024-02-14T05:02:50.862Z,0.10
2024-02-14T05:05:17.948Z,0.03
2024-02-14T05:07:44.732Z,0.50
2024-02-14T05:10:11.537Z,0.20
2024-02-14T05:12:38.504Z,0.10
2024-02-14T05:15:05.874Z,0.10
2024-02-14T05:17:32.842Z,0.15
2024-02-14T05:19:59.757Z,0.40
2024-02-14T05:22:26.991Z,0.30
2024-02-14T05:24:53.673Z,0.20
2024-02-14T05:27:21.091Z,0.03
2024-02-14T05:29:47.769Z,0.30
2024-02-14T05:32:15.130Z,0.08
2024-02-14T05:34:41.860Z,0.30
2024-02-14T05:37:09.171Z,0.20
2024-02-14T05:39:35.870Z,0.13
2024-02-14T05:42:02.660Z,0.05
2024-02-14T05:44:31.403Z,0.10
2024-02-14T05:46:58.244Z,0.00
2024-02-14T05:49:25.965Z,0.00
2024-02-14T05:51:54.558Z,0.03
2024-02-14T05:54:21.266Z,0.00
2024-02-14T05:56:48.599Z,0.10
2024-02-14T05:59:15.424Z,0.20
2024-02-14T06:01:42.075Z,0.17
2024-02-14T06:04:08.850Z,0.30
2024-02-14T06:06:35.698Z,0.30
2024-02-14T06:09:02.516Z,0.03
2024-02-14T06:11:29.188Z,0.40
2024-02-14T06:13:55.946Z,0.20
2024-02-14T06:16:22.598Z,0.45
2024-02-14T06:18:49.659Z,0.32
2024-02-14T06:21:16.522Z,0.75
2024-02-14T06:23:43.398Z,0.30
2024-02-14T06:26:10.077Z,0.30
2024-02-14T06:28:36.807Z,0.17
2024-02-14T06:31:03.523Z,0.50
2024-02-14T06:33:30.567Z,0.35
2024-02-14T06:35:57.694Z,0.47
2024-02-14T06:38:25.687Z,0.50
2024-02-14T06:40:52.395Z,0.10
2024-02-14T06:43:19.123Z,0.30
2024-02-14T06:45:45.826Z,0.45
2024-02-14T06:48:12.672Z,0.40
2024-02-14T06:50:39.890Z,0.35
2024-02-14T06:53:07.520Z,0.60
2024-02-14T07:00:29.741Z,0.28
2024-02-14T07:02:56.728Z,0.60
2024-02-14T07:05:23.624Z,0.22
2024-02-14T07:07:51.036Z,0.43
2024-02-14T07:10:18.250Z,0.05
2024-02-14T07:12:44.964Z,0.80
2024-02-14T07:15:12.539Z,0.43
2024-02-14T07:17:42.412Z,0.40
2024-02-14T07:20:10.502Z,0.20
2024-02-14T07:22:37.619Z,0.20
2024-02-14T07:25:06.271Z,0.52
2024-02-14T07:27:33.302Z,0.22
2024-02-14T07:30:00.382Z,0.30
2024-02-14T07:32:28.980Z,0.82
2024-02-14T07:34:55.860Z,0.63
2024-02-14T07:37:22.776Z,0.55
2024-02-14T07:39:49.547Z,0.45
2024-02-14T07:42:16.596Z,0.57
2024-02-14T07:44:44.034Z,0.68
2024-02-14T07:47:10.948Z,0.68
2024-02-14T07:49:37.696Z,0.40
2024-02-14T07:52:04.945Z,0.55
2024-02-14T07:54:31.815Z,0.43
2024-02-14T07:56:58.521Z,0.73
2024-02-14T07:59:25.258Z,0.68
2024-02-14T08:01:52.110Z,0.45
2024-02-14T08:04:18.831Z,0.52
2024-02-14T08:06:51.609Z,0.60
2024-02-14T08:09:18.373Z,0.30
2024-02-14T08:11:45.096Z,0.70
2024-02-14T08:14:12.641Z,0.43
2024-02-14T08:16:39.336Z,0.70
2024-02-14T08:19:06.190Z,0.52
2024-02-14T08:21:33.258Z,0.70
2024-02-14T08:24:01.485Z,0.22
2024-02-14T08:26:29.781Z,0.40
2024-02-14T08:28:56.808Z,0.55
2024-02-14T08:31:23.827Z,0.52
2024-02-14T08:33:51.125Z,0.55
2024-02-14T08:36:20.175Z,0.55
2024-02-14T08:38:47.123Z,0.25
2024-02-14T08:41:13.851Z,0.50
2024-02-14T08:43:41.556Z,0.43
2024-02-14T08:46:12.513Z,0.45
2024-02-14T08:48:47.210Z,0.40
2024-02-14T08:51:14.969Z,0.55
2024-02-14T08:53:43.843Z,0.20
2024-02-14T08:56:10.563Z,0.25
2024-02-14T08:58:37.393Z,0.30
2024-02-14T09:01:13.035Z,0.80
2024-02-14T09:03:44.878Z,0.52
2024-02-14T09:06:11.756Z,0.60
2024-02-14T09:08:38.872Z,0.32
2024-02-14T09:11:05.574Z,9.23
2024-02-14T09:13:32.290Z,5.95
2024-02-14T09:15:59.022Z,10.20
2024-02-14T09:18:26.788Z,4.72
2024-02-14T09:20:54.097Z,0.70
2024-02-14T09:23:21.889Z,0.77
2024-02-14T09:25:48.610Z,1.08
2024-02-14T09:28:17.170Z,0.70
2024-02-14T09:30:43.956Z,0.98
2024-02-14T09:33:11.052Z,0.77
2024-02-14T09:35:41.023Z,0.80
2024-02-14T09:38:07.792Z,1.45
2024-02-14T09:40:34.932Z,0.98
2024-02-14T09:43:05.591Z,0.80
2024-02-14T09:45:35.061Z,0.80
2024-02-14T09:48:02.725Z,0.90
2024-02-14T09:50:32.189Z,0.75
2024-02-14T09:53:00.015Z,0.40
2024-02-14T09:55:27.920Z,0.50
2024-02-14T09:57:56.023Z,0.45
2024-02-14T10:00:23.635Z,0.32
2024-02-14T10:02:51.296Z,0.45
2024-02-14T10:05:18.162Z,0.47
2024-02-14T10:07:45.569Z,0.30
2024-02-14T10:10:12.891Z,0.55
2024-02-14T10:12:41.605Z,0.50
2024-02-14T10:15:09.438Z,0.80
2024-02-14T10:17:36.242Z,0.50
2024-02-14T10:20:07.670Z,0.50
2024-02-14T10:22:36.804Z,0.45
2024-02-14T10:25:09.993Z,0.50
2024-02-14T10:27:38.857Z,0.50
2024-02-14T10:30:11.344Z,0.80
2024-02-14T10:32:39.616Z,0.65
2024-02-14T10:35:14.520Z,0.75
2024-02-14T10:37:41.597Z,0.43
2024-02-14T10:42:36.943Z,0.70
2024-02-14T10:45:04.938Z,0.63
2024-02-14T10:47:33.734Z,0.60
2024-02-14T10:50:03.734Z,0.90
2024-02-14T10:52:36.381Z,0.40
2024-02-14T10:55:05.433Z,0.38
2024-02-14T10:57:33.462Z,0.38
2024-02-14T11:00:04.437Z,0.25
2024-02-14T11:02:33.738Z,1.67
2024-02-14T11:05:01.874Z,0.73
2024-02-14T11:07:29.982Z,0.20
2024-02-14T11:10:06.084Z,0.28
2024-02-14T11:12:37.952Z,0.13
2024-02-14T11:15:17.535Z,0.20
2024-02-14T11:17:44.768Z,0.22
2024-02-14T11:20:36.204Z,0.38
2024-02-14T11:23:12.187Z,0.30
2024-02-14T11:25:39.753Z,0.40
2024-02-14T11:28:24.724Z,0.20
2024-02-14T11:30:51.538Z,0.20
2024-02-14T11:33:20.393Z,0.20
2024-02-14T11:35:51.286Z,0.10
2024-02-14T11:38:19.201Z,0.30
2024-02-14T11:40:46.212Z,0.25
2024-02-14T11:45:43.287Z,0.28
2024-02-14T11:48:14.170Z,0.60
2024-02-14T11:50:42.722Z,0.38
2024-02-14T11:53:12.121Z,0.22
2024-02-14T11:55:39.477Z,0.20
2024-02-14T11:58:13.935Z,0.50
2024-02-14T12:00:45.752Z,0.28
2024-02-14T12:03:14.651Z,0.30
2024-02-14T12:05:44.458Z,0.10
2024-02-14T12:08:11.948Z,0.20
2024-02-14T12:10:39.064Z,0.00
2024-02-14T12:15:48.568Z,0.00
2024-02-14T12:18:17.328Z,0.10
2024-02-14T12:20:45.249Z,0.30
2024-02-14T12:23:18.776Z,0.10
2024-02-14T12:25:48.627Z,0.08
2024-02-14T12:28:18.369Z,0.25
2024-02-14T12:30:51.273Z,0.20
2024-02-14T12:33:18.437Z,0.17
2024-02-14T12:35:47.768Z,0.20
2024-02-14T12:38:17.598Z,0.00
2024-02-14T12:40:47.612Z,0.20
2024-02-14T12:43:17.063Z,0.32
2024-02-14T12:45:45.176Z,0.30
2024-02-14T12:48:15.029Z,0.20
2024-02-14T12:50:48.963Z,0.15
2024-02-14T12:53:15.804Z,0.15
2024-02-14T12:55:42.817Z,0.00
2024-02-14T13:00:39.246Z,0.17
2024-02-14T13:03:06.482Z,0.00
2024-02-14T13:05:33.469Z,0.25
2024-02-14T13:08:00.185Z,0.20
2024-02-14T13:10:26.879Z,0.20
2024-02-14T13:12:53.642Z,0.10
2024-02-14T13:15:20.407Z,0.20
2024-02-14T13:17:47.501Z,0.10
2024-02-14T13:20:16.404Z,0.20
2024-02-14T13:22:45.944Z,0.40
2024-02-14T13:25:15.270Z,0.10
2024-02-14T13:27:45.681Z,0.20
2024-02-14T13:30:12.787Z,0.08
2024-02-14T13:32:39.687Z,0.10
2024-02-14T13:37:37.511Z,0.10
2024-02-14T13:40:10.085Z,0.17
2024-02-14T13:42:38.959Z,0.10
2024-02-14T13:45:11.226Z,0.05
2024-02-14T13:47:43.615Z,0.10
2024-02-14T13:50:10.993Z,0.25
2024-02-14T13:52:37.867Z,0.00
2024-02-14T13:57:38.020Z,0.03
2024-02-14T14:00:05.785Z,0.20
2024-02-14T14:02:32.700Z,0.20
2024-02-14T14:04:59.546Z,0.10
2024-02-14T14:07:26.230Z,0.10
2024-02-14T14:09:52.933Z,0.20
2024-02-14T14:12:19.615Z,0.20
2024-02-14T14:14:46.361Z,0.30
2024-02-14T14:17:13.160Z,0.20
2024-02-14T14:19:40.816Z,0.20
2024-02-14T14:22:07.582Z,0.00
2024-02-14T14:24:34.418Z,0.22
2024-02-14T14:27:01.200Z,0.20
2024-02-14T14:29:29.278Z,0.10
2024-02-14T14:31:56.009Z,0.10
2024-02-14T14:34:23.571Z,0.00
2024-02-14T14:36:50.407Z,0.00
2024-02-14T14:39:17.172Z,0.10
2024-02-14T14:41:44.976Z,0.28
2024-02-14T14:44:12.887Z,0.10
2024-02-14T14:46:43.173Z,0.00
2024-02-14T14:49:11.120Z,0.20
2024-02-14T14:51:39.399Z,0.10
2024-02-14T14:54:06.437Z,0.00
2024-02-14T14:59:01.051Z,0.10
2024-02-14T15:01:28.933Z,0.20
2024-02-14T15:03:55.699Z,0.10
2024-02-14T15:06:23.131Z,0.25
2024-02-14T15:08:50.220Z,0.10
2024-02-14T15:13:47.013Z,0.08
2024-02-14T15:16:14.517Z,0.13
2024-02-14T15:18:44.495Z,0.00
2024-02-14T15:21:14.909Z,0.10
2024-02-14T15:23:42.097Z,0.10
2024-02-14T15:26:13.211Z,0.05
2024-02-14T15:28:42.792Z,0.10
2024-02-14T15:31:28.081Z,0.05
2024-02-14T15:33:56.860Z,0.10
2024-02-14T15:36:23.920Z,0.30
2024-02-14T15:41:19.537Z,0.20
2024-02-14T15:43:46.594Z,0.10
2024-02-14T15:48:42.377Z,0.38
2024-02-14T15:51:10.250Z,0.00
2024-02-14T15:53:39.199Z,0.15
2024-02-14T15:56:06.970Z,0.10
2024-02-14T15:58:33.734Z,0.10
2024-02-14T16:01:00.453Z,0.10
2024-02-14T16:03:28.043Z,0.20
2024-02-14T16:05:55.011Z,0.20
2024-02-14T16:08:22.612Z,0.20
2024-02-14T16:10:50.665Z,0.38
2024-02-14T16:13:17.982Z,0.13
2024-02-14T16:15:44.765Z,0.20
2024-02-14T16:18:11.551Z,0.20
2024-02-14T16:20:38.432Z,0.30
2024-02-14T16:23:06.949Z,0.30
2024-02-14T16:25:36.719Z,0.10
2024-02-14T16:28:03.891Z,0.17
2024-02-14T16:30:30.662Z,0.40
2024-02-14T16:32:58.170Z,0.43
2024-02-14T16:35:25.679Z,0.20
2024-02-14T16:37:52.400Z,1.02
2024-02-14T16:40:19.225Z,1.40
2024-02-14T16:42:45.934Z,1.65
2024-02-14T16:45:14.018Z,1.33
2024-02-14T16:47:42.480Z,1.40
2024-02-14T16:50:09.641Z,1.08
2024-02-14T16:55:04.629Z,0.47
2024-02-14T16:57:31.538Z,0.43
2024-02-14T16:59:58.406Z,0.50
2024-02-14T17:02:25.577Z,0.70
2024-02-14T17:07:19.238Z,0.32
2024-02-14T17:12:13.288Z,0.17
2024-02-14T17:14:42.364Z,0.47
2024-02-14T17:17:10.872Z,0.45
2024-02-14T17:22:13.720Z,0.55
2024-02-14T17:24:46.555Z,0.30
2024-02-14T17:27:13.607Z,0.30
2024-02-14T17:29:40.459Z,0.20
2024-02-14T17:32:12.430Z,0.40
2024-02-14T17:34:43.935Z,0.30
2024-02-14T17:37:10.664Z,0.50
2024-02-14T17:39:37.382Z,0.40
2024-02-14T17:42:04.437Z,0.30
2024-02-14T17:44:31.132Z,0.30
2024-02-14T17:46:57.786Z,0.20
2024-02-14T17:49:24.848Z,0.22
2024-02-14T17:54:19.746Z,0.47
2024-02-14T17:56:46.507Z,0.80
2024-02-14T17:59:15.546Z,1.00
2024-02-14T18:01:45.889Z,0.88
2024-02-14T18:04:12.660Z,0.50
2024-02-14T18:06:39.450Z,0.30
2024-02-14T18:09:08.452Z,0.50
2024-02-14T18:11:35.780Z,0.38
2024-02-14T18:14:02.509Z,0.30
2024-02-14T18:16:29.277Z,0.95
2024-02-14T18:18:56.356Z,1.90
2024-02-14T18:21:23.247Z,1.60
2024-02-14T18:23:51.153Z,1.08
2024-02-14T18:26:18.125Z,0.90
2024-02-14T18:28:44.925Z,0.75
2024-02-14T18:31:13.383Z,0.90
2024-02-14T18:33:40.384Z,0.80
2024-02-14T18:36:09.043Z,0.77
2024-02-14T18:38:37.329Z,0.70
2024-02-14T18:41:04.309Z,0.60
2024-02-14T18:43:32.725Z,0.73
2024-02-14T18:45:59.432Z,0.70
2024-02-14T18:48:26.388Z,1.05
2024-02-14T18:50:53.584Z,1.65
2024-02-14T18:55:47.085Z,2.60
2024-02-14T18:58:13.865Z,2.40
2024-02-14T19:00:40.981Z,1.58
2024-02-14T19:05:34.546Z,2.70
2024-02-14T19:08:01.215Z,2.47
2024-02-14T19:10:27.892Z,2.63
2024-02-14T19:12:54.624Z,2.03
2024-02-14T19:15:21.806Z,5.32
2024-02-14T19:17:50.220Z,4.53
2024-02-14T19:20:16.979Z,3.00
2024-02-14T19:22:44.290Z,2.13
2024-02-14T19:25:11.381Z,4.70
2024-02-14T19:27:40.931Z,3.72
2024-02-14T19:30:08.133Z,3.67
2024-02-14T19:35:07.484Z,1.35
2024-02-14T19:37:34.233Z,1.60
2024-02-14T19:40:01.857Z,1.30
2024-02-14T19:42:29.763Z,1.50
2024-02-14T19:44:57.322Z,1.40
2024-02-14T19:47:24.103Z,0.95
2024-02-14T19:49:50.802Z,0.80
2024-02-14T19:52:17.754Z,0.50
2024-02-14T19:54:44.914Z,0.80
2024-02-14T19:59:38.756Z,0.77
2024-02-14T20:02:05.684Z,0.80
2024-02-14T20:04:33.102Z,0.93
2024-02-14T20:07:01.536Z,0.60
2024-02-14T20:09:28.244Z,0.45
2024-02-14T20:11:54.921Z,0.90
2024-02-14T20:14:22.268Z,0.55
2024-02-14T20:16:49.058Z,2.55
2024-02-14T20:19:16.088Z,1.63
2024-02-14T20:24:11.006Z,0.90
2024-02-14T20:26:39.165Z,1.00
2024-02-14T20:29:07.292Z,0.80
2024-02-14T20:31:36.307Z,0.85
2024-02-14T20:34:05.632Z,0.70
2024-02-14T20:36:34.881Z,0.90
2024-02-14T20:39:03.745Z,0.57
2024-02-14T20:41:31.235Z,0.47
2024-02-14T20:43:58.389Z,0.80
2024-02-14T20:46:25.237Z,0.63
2024-02-14T20:48:53.075Z,0.30
2024-02-14T20:51:20.120Z,0.90
2024-02-14T20:53:46.898Z,0.85
2024-02-14T20:56:13.652Z,0.70
2024-02-14T20:58:52.162Z,0.65
2024-02-14T21:01:28.043Z,0.50
2024-02-14T21:03:54.771Z,0.70
2024-02-14T21:06:21.741Z,0.88
2024-02-14T21:08:48.757Z,1.10
2024-02-14T21:11:15.559Z,0.93
2024-02-14T21:13:42.229Z,0.80
2024-02-14T21:16:08.902Z,0.85
2024-02-14T21:18:35.663Z,0.57
2024-02-14T21:21:03.008Z,0.63
2024-02-14T21:23:29.822Z,1.55
2024-02-14T21:25:56.502Z,1.10
2024-02-14T21:28:23.383Z,0.85
2024-02-14T21:30:50.057Z,0.77
2024-02-14T21:33:17.546Z,1.02
2024-02-14T21:35:47.857Z,0.60
2024-02-14T21:38:16.979Z,0.52
2024-02-14T21:40:44.206Z,0.63
2024-02-14T21:45:37.604Z,0.70
2024-02-14T21:48:04.863Z,0.57
2024-02-14T21:50:33.350Z,0.63
2024-02-14T21:53:00.119Z,0.40
2024-02-14T21:55:26.823Z,0.57
2024-02-14T21:57:53.489Z,0.68
2024-02-14T22:00:20.492Z,0.80
2024-02-14T22:02:51.260Z,0.50
2024-02-14T22:05:22.802Z,0.57
2024-02-14T22:07:49.806Z,0.40
2024-02-14T22:10:16.795Z,0.45
2024-02-14T22:12:43.982Z,0.30
2024-02-14T22:15:11.169Z,0.40
2024-02-14T22:20:07.464Z,0.50
2024-02-14T22:22:36.560Z,0.75
2024-02-14T22:25:03.413Z,0.77
2024-02-14T22:27:30.076Z,1.00
2024-02-14T22:29:56.908Z,0.47
2024-02-14T22:32:24.020Z,0.43
2024-02-14T22:34:52.157Z,0.47
2024-02-14T22:37:19.114Z,0.40
2024-02-14T22:39:45.838Z,0.32
2024-02-14T22:42:12.987Z,0.25
2024-02-14T22:47:10.764Z,0.50
2024-02-14T22:49:37.814Z,0.57
2024-02-14T22:52:08.111Z,0.70
2024-02-14T22:54:34.781Z,0.52
2024-02-14T22:57:01.542Z,0.50
2024-02-14T22:59:28.319Z,0.40
2024-02-14T23:01:54.995Z,0.40
2024-02-14T23:04:21.696Z,0.57
2024-02-14T23:06:48.434Z,0.30
2024-02-14T23:09:16.219Z,0.38
2024-02-14T23:11:43.463Z,0.65
2024-02-14T23:16:37.322Z,0.35
2024-02-14T23:19:04.509Z,0.10
2024-02-14T23:21:31.903Z,0.20
2024-02-14T23:26:25.410Z,0.40
2024-02-14T23:28:52.142Z,0.20
2024-02-14T23:31:21.658Z,0.32
2024-02-14T23:33:48.978Z,0.30
2024-02-14T23:36:16.879Z,0.43
2024-02-14T23:38:45.278Z,0.65
2024-02-14T23:41:12.265Z,0.40
2024-02-14T23:43:40.416Z,1.00
2024-02-14T23:46:07.910Z,0.68
2024-02-14T23:48:34.978Z,0.60
2024-02-14T23:51:02.104Z,0.30
2024-02-14T23:53:28.978Z,0.40
2024-02-14T23:55:57.807Z,0.47
2024-02-14T23:58:28.913Z,0.55
